TAF KBFD
AMD KBFD 090944Z 0910/1006 00000KT P6SM OVC030 FM091300 00000KT P6SM OVC030 FM092000 15006KT P6SM OVC100=
METAR KBFD
WC KBFD
WS KBFD
WV KBFD